sensor_id;sensor_type;location;lat;lon;timestamp;P1;P2;P0
60058;PMS7003;45932;50.658;3.022;2022-11-14T00:02:10;54.50;46.50;30.50
60058;PMS7003;45932;50.658;3.022;2022-11-14T00:04:35;62.00;49.50;32.75
60058;PMS7003;45932;50.658;3.022;2022-11-14T00:07:00;56.25;46.25;31.75
60058;PMS7003;45932;50.658;3.022;2022-11-14T00:09:26;59.00;48.25;33.00
60058;PMS7003;45932;50.658;3.022;2022-11-14T00:11:52;56.50;47.50;30.50
60058;PMS7003;45932;50.658;3.022;2022-11-14T00:14:18;59.25;47.75;32.25
60058;PMS7003;45932;50.658;3.022;2022-11-14T00:16:44;57.00;47.00;30.00
60058;PMS7003;45932;50.658;3.022;2022-11-14T00:19:09;58.50;47.00;31.50
60058;PMS7003;45932;50.658;3.022;2022-11-14T00:21:35;54.50;46.00;31.75
60058;PMS7003;45932;50.658;3.022;2022-11-14T00:24:00;52.00;42.50;26.25
60058;PMS7003;45932;50.658;3.022;2022-11-14T00:26:25;57.50;47.00;32.25
60058;PMS7003;45932;50.658;3.022;2022-11-14T00:28:51;56.00;46.25;31.00
60058;PMS7003;45932;50.658;3.022;2022-11-14T00:31:18;56.50;45.00;30.00
60058;PMS7003;45932;50.658;3.022;2022-11-14T00:33:43;55.25;44.75;29.00
60058;PMS7003;45932;50.658;3.022;2022-11-14T00:36:08;54.75;45.75;29.75
60058;PMS7003;45932;50.658;3.022;2022-11-14T00:38:34;57.75;46.00;30.00
60058;PMS7003;45932;50.658;3.022;2022-11-14T00:40:59;52.75;43.50;28.75
60058;PMS7003;45932;50.658;3.022;2022-11-14T00:43:24;53.25;44.50;30.00
60058;PMS7003;45932;50.658;3.022;2022-11-14T00:45:50;51.25;43.50;30.75
60058;PMS7003;45932;50.658;3.022;2022-11-14T00:48:15;55.50;46.25;29.75
60058;PMS7003;45932;50.658;3.022;2022-11-14T00:50:40;54.75;45.00;29.00
60058;PMS7003;45932;50.658;3.022;2022-11-14T00:53:06;51.00;42.00;28.50
60058;PMS7003;45932;50.658;3.022;2022-11-14T00:55:32;51.00;39.00;26.25
60058;PMS7003;45932;50.658;3.022;2022-11-14T00:57:57;47.75;36.50;25.00
60058;PMS7003;45932;50.658;3.022;2022-11-14T01:00:25;44.00;38.00;26.75
60058;PMS7003;45932;50.658;3.022;2022-11-14T01:02:50;43.75;35.50;24.00
60058;PMS7003;45932;50.658;3.022;2022-11-14T01:05:16;40.50;36.50;24.50
60058;PMS7003;45932;50.658;3.022;2022-11-14T01:07:41;43.50;37.00;25.25
60058;PMS7003;45932;50.658;3.022;2022-11-14T01:10:07;38.50;32.00;24.25
60058;PMS7003;45932;50.658;3.022;2022-11-14T01:12:33;42.75;36.00;24.75
60058;PMS7003;45932;50.658;3.022;2022-11-14T01:14:58;39.00;34.25;23.00
60058;PMS7003;45932;50.658;3.022;2022-11-14T01:17:23;43.75;35.00;24.00
60058;PMS7003;45932;50.658;3.022;2022-11-14T01:19:52;32.00;30.75;22.75
60058;PMS7003;45932;50.658;3.022;2022-11-14T01:22:17;39.00;33.75;21.50
60058;PMS7003;45932;50.658;3.022;2022-11-14T01:24:43;35.25;33.25;22.75
60058;PMS7003;45932;50.658;3.022;2022-11-14T01:27:08;37.50;33.50;23.50
60058;PMS7003;45932;50.658;3.022;2022-11-14T01:29:33;48.50;42.25;28.00
60058;PMS7003;45932;50.658;3.022;2022-11-14T01:31:59;52.00;41.50;29.00
60058;PMS7003;45932;50.658;3.022;2022-11-14T01:34:24;44.50;36.50;24.00
60058;PMS7003;45932;50.658;3.022;2022-11-14T01:36:50;46.75;36.25;25.00
60058;PMS7003;45932;50.658;3.022;2022-11-14T01:39:16;41.75;36.00;25.00
60058;PMS7003;45932;50.658;3.022;2022-11-14T01:41:41;49.25;38.50;26.25
60058;PMS7003;45932;50.658;3.022;2022-11-14T01:44:16;42.00;35.25;23.25
60058;PMS7003;45932;50.658;3.022;2022-11-14T01:47:02;35.33;31.67;22.00
60058;PMS7003;45932;50.658;3.022;2022-11-14T01:49:38;36.75;34.00;23.00
60058;PMS7003;45932;50.658;3.022;2022-11-14T01:52:11;34.00;33.00;23.00
60058;PMS7003;45932;50.658;3.022;2022-11-14T01:54:40;31.00;31.00;22.00
60058;PMS7003;45932;50.658;3.022;2022-11-14T01:57:10;35.75;32.25;22.50
60058;PMS7003;45932;50.658;3.022;2022-11-14T01:59:39;28.67;27.33;20.67
60058;PMS7003;45932;50.658;3.022;2022-11-14T02:02:11;32.50;29.75;21.00
60058;PMS7003;45932;50.658;3.022;2022-11-14T02:04:41;27.00;27.00;20.50
60058;PMS7003;45932;50.658;3.022;2022-11-14T02:07:10;31.00;27.00;20.25
60058;PMS7003;45932;50.658;3.022;2022-11-14T02:09:37;31.50;30.50;22.00
60058;PMS7003;45932;50.658;3.022;2022-11-14T02:12:05;36.75;29.75;21.00
60058;PMS7003;45932;50.658;3.022;2022-11-14T02:14:35;34.00;30.25;21.50
60058;PMS7003;45932;50.658;3.022;2022-11-14T02:17:02;34.25;30.50;21.00
60058;PMS7003;45932;50.658;3.022;2022-11-14T02:19:40;35.75;29.50;22.75
60058;PMS7003;45932;50.658;3.022;2022-11-14T02:22:06;30.75;27.00;17.00
60058;PMS7003;45932;50.658;3.022;2022-11-14T02:24:31;30.25;28.50;20.25
60058;PMS7003;45932;50.658;3.022;2022-11-14T02:26:56;33.50;25.75;18.00
60058;PMS7003;45932;50.658;3.022;2022-11-14T02:29:22;29.00;28.67;21.00
60058;PMS7003;45932;50.658;3.022;2022-11-14T02:31:47;27.33;26.00;19.00
60058;PMS7003;45932;50.658;3.022;2022-11-14T02:34:12;26.00;26.00;18.00
60058;PMS7003;45932;50.658;3.022;2022-11-14T02:36:40;28.67;27.33;18.67
60058;PMS7003;45932;50.658;3.022;2022-11-14T02:39:06;30.00;28.00;21.00
60058;PMS7003;45932;50.658;3.022;2022-11-14T02:41:31;25.33;25.33;18.00
60058;PMS7003;45932;50.658;3.022;2022-11-14T02:43:56;15.00;14.00;7.00
60058;PMS7003;45932;50.658;3.022;2022-11-14T02:46:21;30.00;29.00;21.00
60058;PMS7003;45932;50.658;3.022;2022-11-14T02:48:47;30.25;28.50;19.50
60058;PMS7003;45932;50.658;3.022;2022-11-14T02:51:12;31.67;25.00;19.33
60058;PMS7003;45932;50.658;3.022;2022-11-14T02:53:37;30.00;27.50;17.00
60058;PMS7003;45932;50.658;3.022;2022-11-14T02:56:03;33.00;30.00;20.33
60058;PMS7003;45932;50.658;3.022;2022-11-14T02:58:28;25.75;23.00;19.00
60058;PMS7003;45932;50.658;3.022;2022-11-14T03:00:53;28.33;27.67;20.00
60058;PMS7003;45932;50.658;3.022;2022-11-14T03:03:19;28.25;27.50;19.00
60058;PMS7003;45932;50.658;3.022;2022-11-14T03:05:44;29.50;26.50;21.25
60058;PMS7003;45932;50.658;3.022;2022-11-14T03:08:09;32.50;32.50;21.00
60058;PMS7003;45932;50.658;3.022;2022-11-14T03:10:35;30.75;29.75;21.25
60058;PMS7003;45932;50.658;3.022;2022-11-14T03:13:00;32.00;31.50;21.75
60058;PMS7003;45932;50.658;3.022;2022-11-14T03:15:25;32.67;31.33;21.00
60058;PMS7003;45932;50.658;3.022;2022-11-14T03:17:51;30.00;30.00;21.33
60058;PMS7003;45932;50.658;3.022;2022-11-14T03:20:16;36.33;32.00;21.67
60058;PMS7003;45932;50.658;3.022;2022-11-14T03:22:42;29.00;29.00;21.25
60058;PMS7003;45932;50.658;3.022;2022-11-14T03:25:07;31.33;25.67;18.33
60058;PMS7003;45932;50.658;3.022;2022-11-14T03:27:33;34.67;31.67;22.67
60058;PMS7003;45932;50.658;3.022;2022-11-14T03:29:59;34.25;29.25;21.25
60058;PMS7003;45932;50.658;3.022;2022-11-14T03:32:24;19.50;17.50;11.50
60058;PMS7003;45932;50.658;3.022;2022-11-14T03:34:49;29.25;28.00;19.00
60058;PMS7003;45932;50.658;3.022;2022-11-14T03:37:15;33.25;30.50;21.50
60058;PMS7003;45932;50.658;3.022;2022-11-14T03:39:40;34.50;30.50;21.25
60058;PMS7003;45932;50.658;3.022;2022-11-14T03:42:05;28.33;27.33;19.00
60058;PMS7003;45932;50.658;3.022;2022-11-14T03:44:30;33.75;30.25;21.00
60058;PMS7003;45932;50.658;3.022;2022-11-14T03:46:56;30.75;27.50;20.00
60058;PMS7003;45932;50.658;3.022;2022-11-14T03:49:21;29.25;27.00;19.75
60058;PMS7003;45932;50.658;3.022;2022-11-14T03:51:46;29.75;27.75;21.25
60058;PMS7003;45932;50.658;3.022;2022-11-14T03:54:12;29.00;27.25;20.00
60058;PMS7003;45932;50.658;3.022;2022-11-14T03:56:37;27.25;26.00;21.25
60058;PMS7003;45932;50.658;3.022;2022-11-14T03:59:02;36.50;28.50;19.25
60058;PMS7003;45932;50.658;3.022;2022-11-14T04:01:28;36.75;32.75;22.00
60058;PMS7003;45932;50.658;3.022;2022-11-14T04:03:54;36.00;31.00;21.00
60058;PMS7003;45932;50.658;3.022;2022-11-14T04:06:19;34.00;29.50;20.00
60058;PMS7003;45932;50.658;3.022;2022-11-14T04:08:44;27.33;26.00;18.00
60058;PMS7003;45932;50.658;3.022;2022-11-14T04:11:10;28.75;26.75;20.00
60058;PMS7003;45932;50.658;3.022;2022-11-14T04:13:35;33.25;29.00;21.50
60058;PMS7003;45932;50.658;3.022;2022-11-14T04:16:01;28.50;28.50;19.75
60058;PMS7003;45932;50.658;3.022;2022-11-14T04:18:26;36.25;32.50;21.50
60058;PMS7003;45932;50.658;3.022;2022-11-14T04:20:52;34.00;30.50;22.00
60058;PMS7003;45932;50.658;3.022;2022-11-14T04:23:17;31.75;29.50;22.00
60058;PMS7003;45932;50.658;3.022;2022-11-14T04:25:44;30.75;28.50;19.75
60058;PMS7003;45932;50.658;3.022;2022-11-14T04:28:10;36.25;31.50;22.50
60058;PMS7003;45932;50.658;3.022;2022-11-14T04:30:36;34.75;32.75;22.00
60058;PMS7003;45932;50.658;3.022;2022-11-14T04:33:01;28.67;25.67;20.67
60058;PMS7003;45932;50.658;3.022;2022-11-14T04:35:27;30.75;29.75;21.75
60058;PMS7003;45932;50.658;3.022;2022-11-14T04:37:52;33.75;29.25;21.00
60058;PMS7003;45932;50.658;3.022;2022-11-14T04:40:17;38.50;34.25;22.00
60058;PMS7003;45932;50.658;3.022;2022-11-14T04:42:42;34.75;32.00;22.00
60058;PMS7003;45932;50.658;3.022;2022-11-14T04:45:08;40.50;31.75;23.25
60058;PMS7003;45932;50.658;3.022;2022-11-14T04:47:33;39.25;33.25;24.00
60058;PMS7003;45932;50.658;3.022;2022-11-14T04:49:59;38.25;35.00;24.00
60058;PMS7003;45932;50.658;3.022;2022-11-14T04:52:24;39.75;34.25;23.75
60058;PMS7003;45932;50.658;3.022;2022-11-14T04:54:49;38.75;35.25;24.75
60058;PMS7003;45932;50.658;3.022;2022-11-14T04:57:14;42.00;37.25;24.75
60058;PMS7003;45932;50.658;3.022;2022-11-14T04:59:41;44.25;35.50;25.00
60058;PMS7003;45932;50.658;3.022;2022-11-14T05:02:07;44.25;38.25;25.00
60058;PMS7003;45932;50.658;3.022;2022-11-14T05:04:32;38.00;33.75;24.50
60058;PMS7003;45932;50.658;3.022;2022-11-14T05:06:57;34.50;33.00;24.00
60058;PMS7003;45932;50.658;3.022;2022-11-14T05:09:23;38.50;34.50;24.75
60058;PMS7003;45932;50.658;3.022;2022-11-14T05:11:48;37.50;33.25;23.00
60058;PMS7003;45932;50.658;3.022;2022-11-14T05:14:13;38.75;34.25;24.75
60058;PMS7003;45932;50.658;3.022;2022-11-14T05:16:39;38.50;35.00;24.00
60058;PMS7003;45932;50.658;3.022;2022-11-14T05:19:04;36.75;33.75;23.75
60058;PMS7003;45932;50.658;3.022;2022-11-14T05:21:29;36.75;33.75;24.00
60058;PMS7003;45932;50.658;3.022;2022-11-14T05:23:55;40.50;35.75;25.00
60058;PMS7003;45932;50.658;3.022;2022-11-14T05:26:20;40.50;33.25;24.00
60058;PMS7003;45932;50.658;3.022;2022-11-14T05:28:45;34.50;33.00;23.75
60058;PMS7003;45932;50.658;3.022;2022-11-14T05:31:12;38.75;34.50;23.75
60058;PMS7003;45932;50.658;3.022;2022-11-14T05:33:41;43.50;35.00;23.50
60058;PMS7003;45932;50.658;3.022;2022-11-14T05:36:08;38.50;34.00;23.00
60058;PMS7003;45932;50.658;3.022;2022-11-14T05:38:35;36.75;34.00;22.25
60058;PMS7003;45932;50.658;3.022;2022-11-14T05:41:08;39.50;33.00;22.00
60058;PMS7003;45932;50.658;3.022;2022-11-14T05:43:35;34.75;33.75;23.75
60058;PMS7003;45932;50.658;3.022;2022-11-14T05:46:01;32.50;31.25;21.75
60058;PMS7003;45932;50.658;3.022;2022-11-14T05:48:29;29.50;28.75;20.25
60058;PMS7003;45932;50.658;3.022;2022-11-14T05:50:56;31.50;29.50;20.25
60058;PMS7003;45932;50.658;3.022;2022-11-14T05:53:22;31.25;30.00;21.00
60058;PMS7003;45932;50.658;3.022;2022-11-14T05:55:47;31.50;25.75;15.25
60058;PMS7003;45932;50.658;3.022;2022-11-14T05:58:13;30.75;29.75;21.00
60058;PMS7003;45932;50.658;3.022;2022-11-14T06:00:38;26.33;26.00;17.33
60058;PMS7003;45932;50.658;3.022;2022-11-14T06:03:03;31.00;27.00;20.00
60058;PMS7003;45932;50.658;3.022;2022-11-14T06:05:29;34.25;30.25;21.25
60058;PMS7003;45932;50.658;3.022;2022-11-14T06:07:57;32.75;30.50;21.25
60058;PMS7003;45932;50.658;3.022;2022-11-14T06:10:23;32.33;29.67;20.00
60058;PMS7003;45932;50.658;3.022;2022-11-14T06:12:49;28.00;24.33;18.00
60058;PMS7003;45932;50.658;3.022;2022-11-14T06:15:15;32.33;27.00;17.33
60058;PMS7003;45932;50.658;3.022;2022-11-14T06:17:41;30.00;27.33;20.33
60058;PMS7003;45932;50.658;3.022;2022-11-14T06:20:08;27.33;24.67;18.00
60058;PMS7003;45932;50.658;3.022;2022-11-14T06:22:34;29.00;26.00;18.33
60058;PMS7003;45932;50.658;3.022;2022-11-14T06:25:00;23.33;21.67;14.00
60058;PMS7003;45932;50.658;3.022;2022-11-14T06:27:28;26.67;23.33;15.33
60058;PMS7003;45932;50.658;3.022;2022-11-14T06:29:53;27.67;26.00;18.33
60058;PMS7003;45932;50.658;3.022;2022-11-14T06:32:18;28.67;27.33;19.67
60058;PMS7003;45932;50.658;3.022;2022-11-14T06:34:44;33.00;27.00;21.00
60058;PMS7003;45932;50.658;3.022;2022-11-14T06:37:09;25.00;22.67;15.00
60058;PMS7003;45932;50.658;3.022;2022-11-14T06:39:34;27.33;25.00;21.00
60058;PMS7003;45932;50.658;3.022;2022-11-14T06:42:00;32.33;27.33;18.00
60058;PMS7003;45932;50.658;3.022;2022-11-14T06:44:25;26.67;23.33;18.00
60058;PMS7003;45932;50.658;3.022;2022-11-14T06:46:59;31.33;25.33;17.33
60058;PMS7003;45932;50.658;3.022;2022-11-14T06:49:24;23.33;22.33;17.00
60058;PMS7003;45932;50.658;3.022;2022-11-14T06:51:51;25.33;21.67;15.00
60058;PMS7003;45932;50.658;3.022;2022-11-14T06:54:17;28.33;23.00;16.33
60058;PMS7003;45932;50.658;3.022;2022-11-14T06:56:42;26.33;23.00;17.00
60058;PMS7003;45932;50.658;3.022;2022-11-14T06:59:08;28.00;24.67;18.33
60058;PMS7003;45932;50.658;3.022;2022-11-14T07:01:33;27.00;23.33;18.00
60058;PMS7003;45932;50.658;3.022;2022-11-14T07:03:58;25.00;22.00;15.00
60058;PMS7003;45932;50.658;3.022;2022-11-14T07:06:26;24.00;23.00;16.00
60058;PMS7003;45932;50.658;3.022;2022-11-14T07:08:53;27.33;22.67;17.33
60058;PMS7003;45932;50.658;3.022;2022-11-14T07:11:20;25.00;22.67;17.33
60058;PMS7003;45932;50.658;3.022;2022-11-14T07:13:50;26.33;26.33;20.00
60058;PMS7003;45932;50.658;3.022;2022-11-14T07:16:17;20.67;20.00;13.00
60058;PMS7003;45932;50.658;3.022;2022-11-14T07:18:43;24.67;22.33;15.33
60058;PMS7003;45932;50.658;3.022;2022-11-14T07:21:08;26.67;23.00;16.00
60058;PMS7003;45932;50.658;3.022;2022-11-14T07:23:37;23.67;22.00;16.33
60058;PMS7003;45932;50.658;3.022;2022-11-14T07:26:03;21.67;18.67;13.00
60058;PMS7003;45932;50.658;3.022;2022-11-14T07:28:33;21.00;19.67;14.00
60058;PMS7003;45932;50.658;3.022;2022-11-14T07:31:03;23.67;23.67;16.00
60058;PMS7003;45932;50.658;3.022;2022-11-14T07:33:30;14.67;14.00;12.00
60058;PMS7003;45932;50.658;3.022;2022-11-14T07:35:56;25.33;20.00;14.00
60058;PMS7003;45932;50.658;3.022;2022-11-14T07:38:21;20.67;19.00;14.00
60058;PMS7003;45932;50.658;3.022;2022-11-14T07:43:22;17.67;17.67;13.67
60058;PMS7003;45932;50.658;3.022;2022-11-14T07:45:48;16.67;15.33;12.33
60058;PMS7003;45932;50.658;3.022;2022-11-14T07:48:16;19.00;17.33;13.67
60058;PMS7003;45932;50.658;3.022;2022-11-14T07:50:42;23.67;20.00;14.67
60058;PMS7003;45932;50.658;3.022;2022-11-14T07:53:11;19.33;19.33;13.33
60058;PMS7003;45932;50.658;3.022;2022-11-14T07:55:37;16.67;16.33;12.67
60058;PMS7003;45932;50.658;3.022;2022-11-14T07:58:02;14.67;14.67;12.00
60058;PMS7003;45932;50.658;3.022;2022-11-14T08:00:34;22.33;15.00;11.33
60058;PMS7003;45932;50.658;3.022;2022-11-14T08:02:59;24.00;20.00;14.00
60058;PMS7003;45932;50.658;3.022;2022-11-14T08:05:25;22.00;18.33;13.00
60058;PMS7003;45932;50.658;3.022;2022-11-14T08:07:50;20.33;18.33;12.00
60058;PMS7003;45932;50.658;3.022;2022-11-14T08:10:18;21.33;18.33;14.33
60058;PMS7003;45932;50.658;3.022;2022-11-14T08:12:44;19.67;17.00;13.67
60058;PMS7003;45932;50.658;3.022;2022-11-14T08:15:10;22.00;20.33;13.67
60058;PMS7003;45932;50.658;3.022;2022-11-14T08:17:38;20.33;19.67;13.67
60058;PMS7003;45932;50.658;3.022;2022-11-14T08:20:04;22.67;16.67;13.33
60058;PMS7003;45932;50.658;3.022;2022-11-14T08:22:31;17.67;16.33;11.33
60058;PMS7003;45932;50.658;3.022;2022-11-14T08:24:56;26.33;18.67;15.33
60058;PMS7003;45932;50.658;3.022;2022-11-14T08:27:22;23.67;20.00;14.00
60058;PMS7003;45932;50.658;3.022;2022-11-14T08:29:48;19.33;19.33;14.67
60058;PMS7003;45932;50.658;3.022;2022-11-14T08:32:15;15.67;11.00;10.00
60058;PMS7003;45932;50.658;3.022;2022-11-14T08:34:40;19.00;19.00;14.00
60058;PMS7003;45932;50.658;3.022;2022-11-14T08:37:07;20.33;18.33;12.00
60058;PMS7003;45932;50.658;3.022;2022-11-14T08:39:32;18.67;16.33;12.00
60058;PMS7003;45932;50.658;3.022;2022-11-14T08:41:58;22.33;20.00;13.67
60058;PMS7003;45932;50.658;3.022;2022-11-14T08:44:23;19.67;18.33;13.67
60058;PMS7003;45932;50.658;3.022;2022-11-14T08:46:49;21.00;20.67;14.00
60058;PMS7003;45932;50.658;3.022;2022-11-14T08:49:14;22.67;18.67;14.33
60058;PMS7003;45932;50.658;3.022;2022-11-14T08:51:40;20.67;20.67;14.67
60058;PMS7003;45932;50.658;3.022;2022-11-14T08:54:05;24.00;21.50;14.75
60058;PMS7003;45932;50.658;3.022;2022-11-14T08:56:31;23.33;19.67;13.00
60058;PMS7003;45932;50.658;3.022;2022-11-14T08:58:56;26.33;24.00;15.67
60058;PMS7003;45932;50.658;3.022;2022-11-14T09:01:22;25.33;22.00;16.00
60058;PMS7003;45932;50.658;3.022;2022-11-14T09:03:47;28.00;23.00;16.33
60058;PMS7003;45932;50.658;3.022;2022-11-14T09:06:12;25.67;24.00;18.00
60058;PMS7003;45932;50.658;3.022;2022-11-14T09:08:38;25.33;21.33;15.00
60058;PMS7003;45932;50.658;3.022;2022-11-14T09:11:03;23.00;21.67;16.67
60058;PMS7003;45932;50.658;3.022;2022-11-14T09:13:31;22.67;21.67;15.00
60058;PMS7003;45932;50.658;3.022;2022-11-14T09:15:57;29.00;27.33;15.00
60058;PMS7003;45932;50.658;3.022;2022-11-14T09:18:23;27.50;23.25;16.00
60058;PMS7003;45932;50.658;3.022;2022-11-14T09:20:48;27.67;26.67;18.33
60058;PMS7003;45932;50.658;3.022;2022-11-14T09:23:13;22.00;20.33;15.00
60058;PMS7003;45932;50.658;3.022;2022-11-14T09:25:39;42.50;35.50;24.75
60058;PMS7003;45932;50.658;3.022;2022-11-14T09:28:05;29.25;26.75;20.00
60058;PMS7003;45932;50.658;3.022;2022-11-14T09:30:31;38.50;33.00;23.00
60058;PMS7003;45932;50.658;3.022;2022-11-14T09:32:58;34.50;33.00;22.00
60058;PMS7003;45932;50.658;3.022;2022-11-14T09:35:25;32.75;28.50;18.50
60058;PMS7003;45932;50.658;3.022;2022-11-14T09:37:57;31.50;28.75;21.00
60058;PMS7003;45932;50.658;3.022;2022-11-14T09:40:27;33.75;28.00;20.00
60058;PMS7003;45932;50.658;3.022;2022-11-14T09:45:59;29.25;23.75;17.00
60058;PMS7003;45932;50.658;3.022;2022-11-14T09:48:26;30.00;26.75;17.75
60058;PMS7003;45932;50.658;3.022;2022-11-14T09:51:06;28.00;25.00;18.33
60058;PMS7003;45932;50.658;3.022;2022-11-14T09:56:18;27.33;27.33;18.00
60058;PMS7003;45932;50.658;3.022;2022-11-14T09:58:47;31.67;28.00;19.67
60058;PMS7003;45932;50.658;3.022;2022-11-14T10:04:16;27.67;24.67;16.67
60058;PMS7003;45932;50.658;3.022;2022-11-14T10:07:00;28.00;26.67;19.00
60058;PMS7003;45932;50.658;3.022;2022-11-14T10:12:39;33.25;28.00;19.00
60058;PMS7003;45932;50.658;3.022;2022-11-14T10:15:14;29.75;27.25;18.50
60058;PMS7003;45932;50.658;3.022;2022-11-14T10:27:17;32.75;30.00;21.50
60058;PMS7003;45932;50.658;3.022;2022-11-14T10:32:44;31.00;26.50;19.00
60058;PMS7003;45932;50.658;3.022;2022-11-14T10:35:27;35.00;31.50;23.00
60058;PMS7003;45932;50.658;3.022;2022-11-14T10:38:19;38.25;32.25;21.75
60058;PMS7003;45932;50.658;3.022;2022-11-14T10:40:54;35.00;31.75;22.75
60058;PMS7003;45932;50.658;3.022;2022-11-14T10:43:46;32.75;27.00;21.00
60058;PMS7003;45932;50.658;3.022;2022-11-14T10:46:20;35.50;29.25;20.75
60058;PMS7003;45932;50.658;3.022;2022-11-14T10:48:50;29.50;27.50;19.00
60058;PMS7003;45932;50.658;3.022;2022-11-14T10:51:21;30.25;26.75;18.75
60058;PMS7003;45932;50.658;3.022;2022-11-14T10:53:54;34.00;31.50;20.75
60058;PMS7003;45932;50.658;3.022;2022-11-14T10:56:24;34.25;32.50;22.00
60058;PMS7003;45932;50.658;3.022;2022-11-14T10:58:49;34.50;29.50;21.25
60058;PMS7003;45932;50.658;3.022;2022-11-14T11:01:31;42.00;35.25;21.75
60058;PMS7003;45932;50.658;3.022;2022-11-14T11:06:53;33.50;28.25;21.25
60058;PMS7003;45932;50.658;3.022;2022-11-14T11:09:21;38.00;30.25;21.00
60058;PMS7003;45932;50.658;3.022;2022-11-14T11:12:08;34.00;31.00;21.00
60058;PMS7003;45932;50.658;3.022;2022-11-14T11:14:40;35.75;32.00;20.25
60058;PMS7003;45932;50.658;3.022;2022-11-14T11:19:45;37.25;28.75;20.00
60058;PMS7003;45932;50.658;3.022;2022-11-14T11:25:00;36.25;34.00;23.25
60058;PMS7003;45932;50.658;3.022;2022-11-14T11:27:26;34.75;30.25;21.00
60058;PMS7003;45932;50.658;3.022;2022-11-14T11:32:37;36.50;33.50;22.00
60058;PMS7003;45932;50.658;3.022;2022-11-14T11:35:02;30.50;29.00;19.75
60058;PMS7003;45932;50.658;3.022;2022-11-14T11:37:50;34.50;32.00;21.75
60058;PMS7003;45932;50.658;3.022;2022-11-14T11:40:50;39.25;32.50;20.00
60058;PMS7003;45932;50.658;3.022;2022-11-14T11:46:13;29.75;27.50;18.25
60058;PMS7003;45932;50.658;3.022;2022-11-14T11:48:43;31.67;28.33;18.67
60058;PMS7003;45932;50.658;3.022;2022-11-14T11:51:13;31.75;30.25;21.00
60058;PMS7003;45932;50.658;3.022;2022-11-14T11:53:43;34.33;27.67;19.00
60058;PMS7003;45932;50.658;3.022;2022-11-14T11:56:15;28.33;28.33;16.33
60058;PMS7003;45932;50.658;3.022;2022-11-14T11:58:49;27.33;26.00;19.33
60058;PMS7003;45932;50.658;3.022;2022-11-14T12:01:17;30.33;26.00;19.67
60058;PMS7003;45932;50.658;3.022;2022-11-14T12:03:51;30.67;28.00;19.00
60058;PMS7003;45932;50.658;3.022;2022-11-14T12:06:18;30.25;25.25;16.25
60058;PMS7003;45932;50.658;3.022;2022-11-14T12:11:39;26.67;23.00;15.00
60058;PMS7003;45932;50.658;3.022;2022-11-14T12:17:03;30.33;25.67;15.67
60058;PMS7003;45932;50.658;3.022;2022-11-14T12:22:54;28.00;24.75;17.75
60058;PMS7003;45932;50.658;3.022;2022-11-14T12:31:10;31.25;31.25;21.50
60058;PMS7003;45932;50.658;3.022;2022-11-14T12:33:39;28.00;28.00;20.00
60058;PMS7003;45932;50.658;3.022;2022-11-14T12:36:10;32.00;29.00;22.00
60058;PMS7003;45932;50.658;3.022;2022-11-14T12:38:47;27.67;26.00;17.00
60058;PMS7003;45932;50.658;3.022;2022-11-14T12:41:32;27.67;23.67;18.00
60058;PMS7003;45932;50.658;3.022;2022-11-14T12:44:16;26.00;25.50;18.25
60058;PMS7003;45932;50.658;3.022;2022-11-14T12:53:11;30.75;29.25;18.75
60058;PMS7003;45932;50.658;3.022;2022-11-14T13:00:20;24.00;20.00;14.00
60058;PMS7003;45932;50.658;3.022;2022-11-14T13:05:22;24.67;23.00;16.00
60058;PMS7003;45932;50.658;3.022;2022-11-14T13:14:19;31.75;28.75;19.75
60058;PMS7003;45932;50.658;3.022;2022-11-14T13:20:21;26.00;24.00;17.33
60058;PMS7003;45932;50.658;3.022;2022-11-14T13:26:04;30.67;25.67;18.67
60058;PMS7003;45932;50.658;3.022;2022-11-14T13:31:06;31.67;28.00;18.67
60058;PMS7003;45932;50.658;3.022;2022-11-14T13:33:42;33.50;28.00;19.50
60058;PMS7003;45932;50.658;3.022;2022-11-14T13:36:33;35.00;30.00;18.00
60058;PMS7003;45932;50.658;3.022;2022-11-14T13:39:13;31.33;30.00;15.00
60058;PMS7003;45932;50.658;3.022;2022-11-14T13:44:39;30.67;29.33;18.00
60058;PMS7003;45932;50.658;3.022;2022-11-14T13:47:21;29.67;29.67;17.00
60058;PMS7003;45932;50.658;3.022;2022-11-14T13:49:55;27.33;26.00;18.33
60058;PMS7003;45932;50.658;3.022;2022-11-14T13:52:39;28.33;25.00;17.00
60058;PMS7003;45932;50.658;3.022;2022-11-14T13:55:22;29.67;26.00;17.33
60058;PMS7003;45932;50.658;3.022;2022-11-14T13:58:05;29.33;27.33;18.00
60058;PMS7003;45932;50.658;3.022;2022-11-14T14:03:43;27.67;23.00;17.00
60058;PMS7003;45932;50.658;3.022;2022-11-14T14:14:40;26.33;25.33;15.00
60058;PMS7003;45932;50.658;3.022;2022-11-14T14:27:59;33.00;27.00;18.33
60058;PMS7003;45932;50.658;3.022;2022-11-14T14:30:29;26.67;22.67;13.67
60058;PMS7003;45932;50.658;3.022;2022-11-14T14:33:01;33.00;27.67;17.00
60058;PMS7003;45932;50.658;3.022;2022-11-14T14:35:31;35.33;32.00;18.67
60058;PMS7003;45932;50.658;3.022;2022-11-14T14:37:58;28.33;27.33;15.00
60058;PMS7003;45932;50.658;3.022;2022-11-14T14:40:25;25.67;24.00;16.67
60058;PMS7003;45932;50.658;3.022;2022-11-14T14:42:57;25.33;20.00;12.00
60058;PMS7003;45932;50.658;3.022;2022-11-14T14:45:26;30.67;27.00;18.67
60058;PMS7003;45932;50.658;3.022;2022-11-14T14:48:03;28.33;26.00;16.00
60058;PMS7003;45932;50.658;3.022;2022-11-14T14:50:46;30.67;30.67;20.00
60058;PMS7003;45932;50.658;3.022;2022-11-14T14:53:29;23.00;22.00;17.00
60058;PMS7003;45932;50.658;3.022;2022-11-14T14:56:00;27.33;24.67;16.00
60058;PMS7003;45932;50.658;3.022;2022-11-14T14:58:41;23.00;22.33;14.33
60058;PMS7003;45932;50.658;3.022;2022-11-14T15:03:43;23.33;22.00;15.33
60058;PMS7003;45932;50.658;3.022;2022-11-14T15:08:53;28.67;26.33;17.33
60058;PMS7003;45932;50.658;3.022;2022-11-14T15:11:20;24.33;23.67;15.00
60058;PMS7003;45932;50.658;3.022;2022-11-14T15:13:46;29.67;29.00;17.67
60058;PMS7003;45932;50.658;3.022;2022-11-14T15:16:16;26.33;24.00;15.00
60058;PMS7003;45932;50.658;3.022;2022-11-14T15:18:42;33.33;28.67;20.00
60058;PMS7003;45932;50.658;3.022;2022-11-14T15:23:56;34.00;28.67;16.33
60058;PMS7003;45932;50.658;3.022;2022-11-14T15:26:22;33.00;28.33;17.33
60058;PMS7003;45932;50.658;3.022;2022-11-14T15:28:48;28.67;26.00;17.00
60058;PMS7003;45932;50.658;3.022;2022-11-14T15:31:19;23.00;22.33;14.00
60058;PMS7003;45932;50.658;3.022;2022-11-14T15:33:59;28.33;27.67;19.00
60058;PMS7003;45932;50.658;3.022;2022-11-14T15:36:26;37.00;31.67;20.00
60058;PMS7003;45932;50.658;3.022;2022-11-14T15:38:59;25.33;22.33;16.67
60058;PMS7003;45932;50.658;3.022;2022-11-14T15:41:26;32.33;28.00;19.00
60058;PMS7003;45932;50.658;3.022;2022-11-14T15:43:54;25.33;25.33;16.33
60058;PMS7003;45932;50.658;3.022;2022-11-14T15:47:08;31.33;29.33;20.00
60058;PMS7003;45932;50.658;3.022;2022-11-14T15:49:16;29.33;26.67;19.00
60058;PMS7003;45932;50.658;3.022;2022-11-14T15:56:50;42.50;34.50;21.50